sensor_id;sensor_type;location;lat;lon;timestamp;P1;durP1;ratioP1;P2;durP2;ratioP2
68319;SDS011;55168;51.120;17.024;2022-07-23T00:00:00;12.1;;;10.5;;
68319;SDS011;55168;51.120;17.024;2022-07-23T00:01:00;12.1;;;10.5;;
68319;SDS011;55168;51.120;17.024;2022-07-23T00:02:00;12.1;;;10.5;;
68319;SDS011;55168;51.120;17.024;2022-07-23T00:03:00;12.1;;;10.5;;
68319;SDS011;55168;51.120;17.024;2022-07-23T00:04:00;11.9;;;10.0;;
68319;SDS011;55168;51.120;17.024;2022-07-23T00:05:00;11.9;;;10.0;;
68319;SDS011;55168;51.120;17.024;2022-07-23T00:06:00;11.9;;;10.0;;
68319;SDS011;55168;51.120;17.024;2022-07-23T00:07:00;11.9;;;10.0;;
68319;SDS011;55168;51.120;17.024;2022-07-23T00:08:00;11.9;;;10.0;;
68319;SDS011;55168;51.120;17.024;2022-07-23T00:09:00;11.5;;;9.9;;
68319;SDS011;55168;51.120;17.024;2022-07-23T00:10:00;11.5;;;9.9;;
68319;SDS011;55168;51.120;17.024;2022-07-23T00:11:00;11.5;;;9.9;;
68319;SDS011;55168;51.120;17.024;2022-07-23T00:12:00;11.5;;;9.9;;
68319;SDS011;55168;51.120;17.024;2022-07-23T00:13:00;11.5;;;9.9;;
68319;SDS011;55168;51.120;17.024;2022-07-23T00:14:00;11.1;;;9.9;;
68319;SDS011;55168;51.120;17.024;2022-07-23T00:15:00;11.1;;;9.9;;
68319;SDS011;55168;51.120;17.024;2022-07-23T00:16:00;11.1;;;9.9;;
68319;SDS011;55168;51.120;17.024;2022-07-23T00:17:00;11.1;;;9.9;;
68319;SDS011;55168;51.120;17.024;2022-07-23T00:18:00;11.1;;;9.9;;
68319;SDS011;55168;51.120;17.024;2022-07-23T00:19:00;10.8;;;9.8;;
68319;SDS011;55168;51.120;17.024;2022-07-23T00:20:00;10.8;;;9.8;;
68319;SDS011;55168;51.120;17.024;2022-07-23T00:21:00;10.8;;;9.8;;
68319;SDS011;55168;51.120;17.024;2022-07-23T00:22:00;10.8;;;9.8;;
68319;SDS011;55168;51.120;17.024;2022-07-23T00:23:00;10.8;;;9.8;;
68319;SDS011;55168;51.120;17.024;2022-07-23T00:24:00;12.4;;;9.8;;
68319;SDS011;55168;51.120;17.024;2022-07-23T00:25:00;12.4;;;9.8;;
68319;SDS011;55168;51.120;17.024;2022-07-23T00:26:00;12.4;;;9.8;;
68319;SDS011;55168;51.120;17.024;2022-07-23T00:27:00;12.4;;;9.8;;
68319;SDS011;55168;51.120;17.024;2022-07-23T00:28:01;12.4;;;9.8;;
68319;SDS011;55168;51.120;17.024;2022-07-23T00:29:00;11.8;;;10.0;;
68319;SDS011;55168;51.120;17.024;2022-07-23T00:30:00;11.8;;;10.0;;
68319;SDS011;55168;51.120;17.024;2022-07-23T00:31:00;11.8;;;10.0;;
68319;SDS011;55168;51.120;17.024;2022-07-23T00:32:00;11.8;;;10.0;;
68319;SDS011;55168;51.120;17.024;2022-07-23T00:33:07;11.8;;;10.0;;
68319;SDS011;55168;51.120;17.024;2022-07-23T00:34:00;12.3;;;10.6;;
68319;SDS011;55168;51.120;17.024;2022-07-23T00:35:00;12.3;;;10.6;;
68319;SDS011;55168;51.120;17.024;2022-07-23T00:36:00;12.3;;;10.6;;
68319;SDS011;55168;51.120;17.024;2022-07-23T00:37:00;12.3;;;10.6;;
68319;SDS011;55168;51.120;17.024;2022-07-23T00:38:01;12.3;;;10.6;;
68319;SDS011;55168;51.120;17.024;2022-07-23T00:39:00;11.1;;;9.9;;
68319;SDS011;55168;51.120;17.024;2022-07-23T00:40:00;11.1;;;9.9;;
68319;SDS011;55168;51.120;17.024;2022-07-23T00:41:00;11.1;;;9.9;;
68319;SDS011;55168;51.120;17.024;2022-07-23T00:42:00;11.1;;;9.9;;
68319;SDS011;55168;51.120;17.024;2022-07-23T00:43:00;11.1;;;9.9;;
68319;SDS011;55168;51.120;17.024;2022-07-23T00:44:26;11.4;;;10.3;;
68319;SDS011;55168;51.120;17.024;2022-07-23T00:45:00;11.4;;;10.3;;
68319;SDS011;55168;51.120;17.024;2022-07-23T00:46:00;11.4;;;10.3;;
68319;SDS011;55168;51.120;17.024;2022-07-23T00:47:00;11.4;;;10.3;;
68319;SDS011;55168;51.120;17.024;2022-07-23T00:48:00;11.4;;;10.3;;
68319;SDS011;55168;51.120;17.024;2022-07-23T00:49:00;11.7;;;10.5;;
68319;SDS011;55168;51.120;17.024;2022-07-23T00:50:00;11.7;;;10.5;;
68319;SDS011;55168;51.120;17.024;2022-07-23T00:51:00;11.7;;;10.5;;
68319;SDS011;55168;51.120;17.024;2022-07-23T00:52:01;11.7;;;10.5;;
68319;SDS011;55168;51.120;17.024;2022-07-23T00:53:00;11.7;;;10.5;;
68319;SDS011;55168;51.120;17.024;2022-07-23T00:54:00;12.5;;;10.1;;
68319;SDS011;55168;51.120;17.024;2022-07-23T00:55:00;12.5;;;10.1;;
68319;SDS011;55168;51.120;17.024;2022-07-23T00:56:00;12.5;;;10.1;;
68319;SDS011;55168;51.120;17.024;2022-07-23T00:57:00;12.5;;;10.1;;
68319;SDS011;55168;51.120;17.024;2022-07-23T00:58:01;12.5;;;10.1;;
68319;SDS011;55168;51.120;17.024;2022-07-23T00:59:00;11.6;;;10.2;;
68319;SDS011;55168;51.120;17.024;2022-07-23T01:00:00;11.6;;;10.2;;
68319;SDS011;55168;51.120;17.024;2022-07-23T01:01:00;11.6;;;10.2;;
68319;SDS011;55168;51.120;17.024;2022-07-23T01:02:00;11.6;;;10.2;;
68319;SDS011;55168;51.120;17.024;2022-07-23T01:03:00;11.6;;;10.2;;
68319;SDS011;55168;51.120;17.024;2022-07-23T01:04:00;12.5;;;10.0;;
68319;SDS011;55168;51.120;17.024;2022-07-23T01:05:00;12.5;;;10.0;;
68319;SDS011;55168;51.120;17.024;2022-07-23T01:06:00;12.5;;;10.0;;
68319;SDS011;55168;51.120;17.024;2022-07-23T01:07:00;12.5;;;10.0;;
68319;SDS011;55168;51.120;17.024;2022-07-23T01:08:00;12.5;;;10.0;;
68319;SDS011;55168;51.120;17.024;2022-07-23T01:09:00;10.2;;;9.2;;
68319;SDS011;55168;51.120;17.024;2022-07-23T01:10:00;10.2;;;9.2;;
68319;SDS011;55168;51.120;17.024;2022-07-23T01:11:00;10.2;;;9.2;;
68319;SDS011;55168;51.120;17.024;2022-07-23T01:12:00;10.2;;;9.2;;
68319;SDS011;55168;51.120;17.024;2022-07-23T01:13:02;10.2;;;9.2;;
68319;SDS011;55168;51.120;17.024;2022-07-23T01:14:08;11.4;;;10.3;;
68319;SDS011;55168;51.120;17.024;2022-07-23T01:15:00;11.4;;;10.3;;
68319;SDS011;55168;51.120;17.024;2022-07-23T01:16:00;11.4;;;10.3;;
68319;SDS011;55168;51.120;17.024;2022-07-23T01:17:00;11.4;;;10.3;;
68319;SDS011;55168;51.120;17.024;2022-07-23T01:18:00;11.4;;;10.3;;
68319;SDS011;55168;51.120;17.024;2022-07-23T01:19:00;13.3;;;11.0;;
68319;SDS011;55168;51.120;17.024;2022-07-23T01:20:00;13.3;;;11.0;;
68319;SDS011;55168;51.120;17.024;2022-07-23T01:21:00;13.3;;;11.0;;
68319;SDS011;55168;51.120;17.024;2022-07-23T01:22:02;13.3;;;11.0;;
68319;SDS011;55168;51.120;17.024;2022-07-23T01:23:00;13.3;;;11.0;;
68319;SDS011;55168;51.120;17.024;2022-07-23T01:24:00;12.4;;;11.1;;
68319;SDS011;55168;51.120;17.024;2022-07-23T01:25:00;12.4;;;11.1;;
68319;SDS011;55168;51.120;17.024;2022-07-23T01:26:00;12.4;;;11.1;;
68319;SDS011;55168;51.120;17.024;2022-07-23T01:27:00;12.4;;;11.1;;
68319;SDS011;55168;51.120;17.024;2022-07-23T01:28:00;12.4;;;11.1;;
68319;SDS011;55168;51.120;17.024;2022-07-23T01:29:00;13.4;;;12.0;;
68319;SDS011;55168;51.120;17.024;2022-07-23T01:30:00;13.4;;;12.0;;
68319;SDS011;55168;51.120;17.024;2022-07-23T01:31:00;13.4;;;12.0;;
68319;SDS011;55168;51.120;17.024;2022-07-23T01:32:00;13.4;;;12.0;;
68319;SDS011;55168;51.120;17.024;2022-07-23T01:33:00;13.4;;;12.0;;
68319;SDS011;55168;51.120;17.024;2022-07-23T01:34:00;14.5;;;12.2;;
68319;SDS011;55168;51.120;17.024;2022-07-23T01:35:00;14.5;;;12.2;;
68319;SDS011;55168;51.120;17.024;2022-07-23T01:36:00;14.5;;;12.2;;
68319;SDS011;55168;51.120;17.024;2022-07-23T01:37:00;14.5;;;12.2;;
68319;SDS011;55168;51.120;17.024;2022-07-23T01:38:00;14.5;;;12.2;;
68319;SDS011;55168;51.120;17.024;2022-07-23T01:39:00;14.2;;;12.8;;
68319;SDS011;55168;51.120;17.024;2022-07-23T01:40:00;14.2;;;12.8;;
68319;SDS011;55168;51.120;17.024;2022-07-23T01:41:00;14.2;;;12.8;;
68319;SDS011;55168;51.120;17.024;2022-07-23T01:42:00;14.2;;;12.8;;
68319;SDS011;55168;51.120;17.024;2022-07-23T01:43:00;14.2;;;12.8;;
68319;SDS011;55168;51.120;17.024;2022-07-23T01:44:00;15.4;;;13.1;;
68319;SDS011;55168;51.120;17.024;2022-07-23T01:45:00;15.4;;;13.1;;
68319;SDS011;55168;51.120;17.024;2022-07-23T01:46:00;15.4;;;13.1;;
68319;SDS011;55168;51.120;17.024;2022-07-23T01:47:00;15.4;;;13.1;;
68319;SDS011;55168;51.120;17.024;2022-07-23T01:48:00;15.4;;;13.1;;
68319;SDS011;55168;51.120;17.024;2022-07-23T01:49:00;15.0;;;13.4;;
68319;SDS011;55168;51.120;17.024;2022-07-23T01:50:00;15.0;;;13.4;;
68319;SDS011;55168;51.120;17.024;2022-07-23T01:51:00;15.0;;;13.4;;
68319;SDS011;55168;51.120;17.024;2022-07-23T01:52:00;15.0;;;13.4;;
68319;SDS011;55168;51.120;17.024;2022-07-23T01:53:00;15.0;;;13.4;;
68319;SDS011;55168;51.120;17.024;2022-07-23T01:54:00;15.7;;;14.0;;
68319;SDS011;55168;51.120;17.024;2022-07-23T01:55:00;15.7;;;14.0;;
68319;SDS011;55168;51.120;17.024;2022-07-23T01:56:00;15.7;;;14.0;;
68319;SDS011;55168;51.120;17.024;2022-07-23T01:57:00;15.7;;;14.0;;
68319;SDS011;55168;51.120;17.024;2022-07-23T01:58:00;15.7;;;14.0;;
68319;SDS011;55168;51.120;17.024;2022-07-23T01:59:00;17.6;;;13.6;;
68319;SDS011;55168;51.120;17.024;2022-07-23T02:00:00;17.6;;;13.6;;
68319;SDS011;55168;51.120;17.024;2022-07-23T02:01:00;17.6;;;13.6;;
68319;SDS011;55168;51.120;17.024;2022-07-23T02:02:00;17.6;;;13.6;;
68319;SDS011;55168;51.120;17.024;2022-07-23T02:03:00;17.6;;;13.6;;
68319;SDS011;55168;51.120;17.024;2022-07-23T02:04:00;16.0;;;13.7;;
68319;SDS011;55168;51.120;17.024;2022-07-23T02:05:00;16.0;;;13.7;;
68319;SDS011;55168;51.120;17.024;2022-07-23T02:06:00;16.0;;;13.7;;
68319;SDS011;55168;51.120;17.024;2022-07-23T02:07:00;16.0;;;13.7;;
68319;SDS011;55168;51.120;17.024;2022-07-23T02:08:00;16.0;;;13.7;;
68319;SDS011;55168;51.120;17.024;2022-07-23T02:09:00;17.3;;;13.3;;
68319;SDS011;55168;51.120;17.024;2022-07-23T02:10:00;17.3;;;13.3;;
68319;SDS011;55168;51.120;17.024;2022-07-23T02:11:00;17.3;;;13.3;;
68319;SDS011;55168;51.120;17.024;2022-07-23T02:12:00;17.3;;;13.3;;
68319;SDS011;55168;51.120;17.024;2022-07-23T02:13:00;17.3;;;13.3;;
68319;SDS011;55168;51.120;17.024;2022-07-23T02:14:00;16.5;;;14.4;;
68319;SDS011;55168;51.120;17.024;2022-07-23T02:15:00;16.5;;;14.4;;
68319;SDS011;55168;51.120;17.024;2022-07-23T02:16:00;16.5;;;14.4;;
68319;SDS011;55168;51.120;17.024;2022-07-23T02:17:00;16.5;;;14.4;;
68319;SDS011;55168;51.120;17.024;2022-07-23T02:18:00;16.5;;;14.4;;
68319;SDS011;55168;51.120;17.024;2022-07-23T02:19:00;18.4;;;14.7;;
68319;SDS011;55168;51.120;17.024;2022-07-23T02:20:00;18.4;;;14.7;;
68319;SDS011;55168;51.120;17.024;2022-07-23T02:21:00;18.4;;;14.7;;
68319;SDS011;55168;51.120;17.024;2022-07-23T02:22:00;18.4;;;14.7;;
68319;SDS011;55168;51.120;17.024;2022-07-23T02:23:00;18.4;;;14.7;;
68319;SDS011;55168;51.120;17.024;2022-07-23T02:24:00;15.5;;;13.6;;
68319;SDS011;55168;51.120;17.024;2022-07-23T02:25:00;15.5;;;13.6;;
68319;SDS011;55168;51.120;17.024;2022-07-23T02:26:00;15.5;;;13.6;;
68319;SDS011;55168;51.120;17.024;2022-07-23T02:27:00;15.5;;;13.6;;
68319;SDS011;55168;51.120;17.024;2022-07-23T02:28:00;15.5;;;13.6;;
68319;SDS011;55168;51.120;17.024;2022-07-23T02:29:00;14.4;;;13.0;;
68319;SDS011;55168;51.120;17.024;2022-07-23T02:30:00;14.4;;;13.0;;
68319;SDS011;55168;51.120;17.024;2022-07-23T02:31:00;14.4;;;13.0;;
68319;SDS011;55168;51.120;17.024;2022-07-23T02:32:00;14.4;;;13.0;;
68319;SDS011;55168;51.120;17.024;2022-07-23T02:33:00;14.4;;;13.0;;
68319;SDS011;55168;51.120;17.024;2022-07-23T02:34:00;15.1;;;13.5;;
68319;SDS011;55168;51.120;17.024;2022-07-23T02:35:00;15.1;;;13.5;;
68319;SDS011;55168;51.120;17.024;2022-07-23T02:36:00;15.1;;;13.5;;
68319;SDS011;55168;51.120;17.024;2022-07-23T02:37:00;15.1;;;13.5;;
68319;SDS011;55168;51.120;17.024;2022-07-23T02:38:00;15.1;;;13.5;;
68319;SDS011;55168;51.120;17.024;2022-07-23T02:39:00;15.9;;;14.2;;
68319;SDS011;55168;51.120;17.024;2022-07-23T02:40:00;15.9;;;14.2;;
68319;SDS011;55168;51.120;17.024;2022-07-23T02:41:00;15.9;;;14.2;;
68319;SDS011;55168;51.120;17.024;2022-07-23T02:42:00;15.9;;;14.2;;
68319;SDS011;55168;51.120;17.024;2022-07-23T02:43:00;15.9;;;14.2;;
68319;SDS011;55168;51.120;17.024;2022-07-23T02:44:00;15.2;;;13.0;;
68319;SDS011;55168;51.120;17.024;2022-07-23T02:45:00;15.2;;;13.0;;
68319;SDS011;55168;51.120;17.024;2022-07-23T02:46:00;15.2;;;13.0;;
68319;SDS011;55168;51.120;17.024;2022-07-23T02:47:00;15.2;;;13.0;;
68319;SDS011;55168;51.120;17.024;2022-07-23T02:48:00;15.2;;;13.0;;
68319;SDS011;55168;51.120;17.024;2022-07-23T02:49:00;15.1;;;13.6;;
68319;SDS011;55168;51.120;17.024;2022-07-23T02:50:00;15.1;;;13.6;;
68319;SDS011;55168;51.120;17.024;2022-07-23T02:51:00;15.1;;;13.6;;
68319;SDS011;55168;51.120;17.024;2022-07-23T02:52:00;15.1;;;13.6;;
68319;SDS011;55168;51.120;17.024;2022-07-23T02:53:00;15.1;;;13.6;;
68319;SDS011;55168;51.120;17.024;2022-07-23T02:54:00;16.1;;;14.5;;
68319;SDS011;55168;51.120;17.024;2022-07-23T02:55:00;16.1;;;14.5;;
68319;SDS011;55168;51.120;17.024;2022-07-23T02:56:00;16.1;;;14.5;;
68319;SDS011;55168;51.120;17.024;2022-07-23T02:57:00;16.1;;;14.5;;
68319;SDS011;55168;51.120;17.024;2022-07-23T02:58:00;16.1;;;14.5;;
68319;SDS011;55168;51.120;17.024;2022-07-23T02:59:00;14.0;;;12.6;;
68319;SDS011;55168;51.120;17.024;2022-07-23T03:00:00;14.0;;;12.6;;
68319;SDS011;55168;51.120;17.024;2022-07-23T03:01:00;14.0;;;12.6;;
68319;SDS011;55168;51.120;17.024;2022-07-23T03:02:00;14.0;;;12.6;;
68319;SDS011;55168;51.120;17.024;2022-07-23T03:03:00;14.0;;;12.6;;
68319;SDS011;55168;51.120;17.024;2022-07-23T03:04:00;14.3;;;12.8;;
68319;SDS011;55168;51.120;17.024;2022-07-23T03:05:00;14.3;;;12.8;;
68319;SDS011;55168;51.120;17.024;2022-07-23T03:06:00;14.3;;;12.8;;
68319;SDS011;55168;51.120;17.024;2022-07-23T03:07:00;14.3;;;12.8;;
68319;SDS011;55168;51.120;17.024;2022-07-23T03:08:00;14.3;;;12.8;;
68319;SDS011;55168;51.120;17.024;2022-07-23T03:09:00;14.6;;;13.2;;
68319;SDS011;55168;51.120;17.024;2022-07-23T03:10:00;14.6;;;13.2;;
68319;SDS011;55168;51.120;17.024;2022-07-23T03:11:00;14.6;;;13.2;;
68319;SDS011;55168;51.120;17.024;2022-07-23T03:12:00;14.6;;;13.2;;
68319;SDS011;55168;51.120;17.024;2022-07-23T03:13:00;14.6;;;13.2;;
68319;SDS011;55168;51.120;17.024;2022-07-23T03:14:00;15.1;;;13.5;;
68319;SDS011;55168;51.120;17.024;2022-07-23T03:15:00;15.1;;;13.5;;
68319;SDS011;55168;51.120;17.024;2022-07-23T03:16:00;15.1;;;13.5;;
68319;SDS011;55168;51.120;17.024;2022-07-23T03:17:00;15.1;;;13.5;;
68319;SDS011;55168;51.120;17.024;2022-07-23T03:18:00;15.1;;;13.5;;
68319;SDS011;55168;51.120;17.024;2022-07-23T03:19:00;14.7;;;13.2;;
68319;SDS011;55168;51.120;17.024;2022-07-23T03:20:00;14.7;;;13.2;;
68319;SDS011;55168;51.120;17.024;2022-07-23T03:21:00;14.7;;;13.2;;
68319;SDS011;55168;51.120;17.024;2022-07-23T03:22:00;14.7;;;13.2;;
68319;SDS011;55168;51.120;17.024;2022-07-23T03:23:00;14.7;;;13.2;;
68319;SDS011;55168;51.120;17.024;2022-07-23T03:24:00;14.2;;;12.8;;
68319;SDS011;55168;51.120;17.024;2022-07-23T03:25:00;14.2;;;12.8;;
68319;SDS011;55168;51.120;17.024;2022-07-23T03:26:00;14.2;;;12.8;;
68319;SDS011;55168;51.120;17.024;2022-07-23T03:27:00;14.2;;;12.8;;
68319;SDS011;55168;51.120;17.024;2022-07-23T03:28:00;14.2;;;12.8;;
68319;SDS011;55168;51.120;17.024;2022-07-23T03:29:00;18.9;;;12.6;;
68319;SDS011;55168;51.120;17.024;2022-07-23T03:30:00;18.9;;;12.6;;
68319;SDS011;55168;51.120;17.024;2022-07-23T03:31:00;18.9;;;12.6;;
68319;SDS011;55168;51.120;17.024;2022-07-23T03:32:00;18.9;;;12.6;;
68319;SDS011;55168;51.120;17.024;2022-07-23T03:33:00;18.9;;;12.6;;
68319;SDS011;55168;51.120;17.024;2022-07-23T03:34:00;15.3;;;13.2;;
68319;SDS011;55168;51.120;17.024;2022-07-23T03:35:00;15.3;;;13.2;;
68319;SDS011;55168;51.120;17.024;2022-07-23T03:36:00;15.3;;;13.2;;
68319;SDS011;55168;51.120;17.024;2022-07-23T03:37:00;15.3;;;13.2;;
68319;SDS011;55168;51.120;17.024;2022-07-23T03:38:00;15.3;;;13.2;;
68319;SDS011;55168;51.120;17.024;2022-07-23T03:39:00;13.7;;;12.3;;
68319;SDS011;55168;51.120;17.024;2022-07-23T03:40:00;13.7;;;12.3;;
68319;SDS011;55168;51.120;17.024;2022-07-23T03:41:00;13.7;;;12.3;;
68319;SDS011;55168;51.120;17.024;2022-07-23T03:42:00;13.7;;;12.3;;
68319;SDS011;55168;51.120;17.024;2022-07-23T03:43:00;13.7;;;12.3;;
68319;SDS011;55168;51.120;17.024;2022-07-23T03:44:00;15.2;;;12.4;;
68319;SDS011;55168;51.120;17.024;2022-07-23T03:45:00;15.2;;;12.4;;
68319;SDS011;55168;51.120;17.024;2022-07-23T03:46:00;15.2;;;12.4;;
68319;SDS011;55168;51.120;17.024;2022-07-23T03:47:00;15.2;;;12.4;;
68319;SDS011;55168;51.120;17.024;2022-07-23T03:48:00;15.2;;;12.4;;
68319;SDS011;55168;51.120;17.024;2022-07-23T03:49:00;13.9;;;12.4;;
68319;SDS011;55168;51.120;17.024;2022-07-23T03:50:00;13.9;;;12.4;;
68319;SDS011;55168;51.120;17.024;2022-07-23T03:51:00;13.9;;;12.4;;
68319;SDS011;55168;51.120;17.024;2022-07-23T03:52:00;13.9;;;12.4;;
68319;SDS011;55168;51.120;17.024;2022-07-23T03:53:00;13.9;;;12.4;;
68319;SDS011;55168;51.120;17.024;2022-07-23T03:54:00;16.6;;;13.2;;
68319;SDS011;55168;51.120;17.024;2022-07-23T03:55:00;16.6;;;13.2;;
68319;SDS011;55168;51.120;17.024;2022-07-23T03:56:00;16.6;;;13.2;;
68319;SDS011;55168;51.120;17.024;2022-07-23T03:57:00;16.6;;;13.2;;
68319;SDS011;55168;51.120;17.024;2022-07-23T03:58:00;16.6;;;13.2;;
68319;SDS011;55168;51.120;17.024;2022-07-23T03:59:00;14.1;;;11.7;;
68319;SDS011;55168;51.120;17.024;2022-07-23T04:00:00;14.1;;;11.7;;
68319;SDS011;55168;51.120;17.024;2022-07-23T04:01:00;14.1;;;11.7;;
68319;SDS011;55168;51.120;17.024;2022-07-23T04:02:00;14.1;;;11.7;;
68319;SDS011;55168;51.120;17.024;2022-07-23T04:03:00;14.1;;;11.7;;
68319;SDS011;55168;51.120;17.024;2022-07-23T04:04:00;13.5;;;11.8;;
68319;SDS011;55168;51.120;17.024;2022-07-23T04:05:00;13.5;;;11.8;;
68319;SDS011;55168;51.120;17.024;2022-07-23T04:06:00;13.5;;;11.8;;
68319;SDS011;55168;51.120;17.024;2022-07-23T04:07:00;13.5;;;11.8;;
68319;SDS011;55168;51.120;17.024;2022-07-23T04:08:00;13.5;;;11.8;;
68319;SDS011;55168;51.120;17.024;2022-07-23T04:09:00;12.0;;;10.8;;
68319;SDS011;55168;51.120;17.024;2022-07-23T04:10:00;12.0;;;10.8;;
68319;SDS011;55168;51.120;17.024;2022-07-23T04:11:00;12.0;;;10.8;;
68319;SDS011;55168;51.120;17.024;2022-07-23T04:12:00;12.0;;;10.8;;
68319;SDS011;55168;51.120;17.024;2022-07-23T04:13:00;12.0;;;10.8;;
68319;SDS011;55168;51.120;17.024;2022-07-23T04:14:00;12.4;;;11.2;;
68319;SDS011;55168;51.120;17.024;2022-07-23T04:15:00;12.4;;;11.2;;
68319;SDS011;55168;51.120;17.024;2022-07-23T04:16:00;12.4;;;11.2;;
68319;SDS011;55168;51.120;17.024;2022-07-23T04:17:00;12.4;;;11.2;;
68319;SDS011;55168;51.120;17.024;2022-07-23T04:18:00;12.4;;;11.2;;
68319;SDS011;55168;51.120;17.024;2022-07-23T04:19:00;11.6;;;10.4;;
68319;SDS011;55168;51.120;17.024;2022-07-23T04:20:00;11.6;;;10.4;;
68319;SDS011;55168;51.120;17.024;2022-07-23T04:21:00;11.6;;;10.4;;
68319;SDS011;55168;51.120;17.024;2022-07-23T04:22:00;11.6;;;10.4;;
68319;SDS011;55168;51.120;17.024;2022-07-23T04:23:00;11.6;;;10.4;;
68319;SDS011;55168;51.120;17.024;2022-07-23T04:24:00;11.2;;;10.1;;
68319;SDS011;55168;51.120;17.024;2022-07-23T04:25:00;11.2;;;10.1;;
68319;SDS011;55168;51.120;17.024;2022-07-23T04:26:00;11.2;;;10.1;;
68319;SDS011;55168;51.120;17.024;2022-07-23T04:27:00;11.2;;;10.1;;
68319;SDS011;55168;51.120;17.024;2022-07-23T04:28:00;11.2;;;10.1;;
68319;SDS011;55168;51.120;17.024;2022-07-23T04:29:00;10.9;;;9.7;;
68319;SDS011;55168;51.120;17.024;2022-07-23T04:30:00;10.9;;;9.7;;
68319;SDS011;55168;51.120;17.024;2022-07-23T04:31:00;10.9;;;9.7;;
68319;SDS011;55168;51.120;17.024;2022-07-23T04:32:00;10.9;;;9.7;;
68319;SDS011;55168;51.120;17.024;2022-07-23T04:33:00;10.9;;;9.7;;
68319;SDS011;55168;51.120;17.024;2022-07-23T04:34:00;11.0;;;10.0;;
68319;SDS011;55168;51.120;17.024;2022-07-23T04:35:00;11.0;;;10.0;;
68319;SDS011;55168;51.120;17.024;2022-07-23T04:36:00;11.0;;;10.0;;
68319;SDS011;55168;51.120;17.024;2022-07-23T04:37:00;11.0;;;10.0;;
68319;SDS011;55168;51.120;17.024;2022-07-23T04:38:00;11.0;;;10.0;;
68319;SDS011;55168;51.120;17.024;2022-07-23T04:39:00;11.4;;;10.4;;
68319;SDS011;55168;51.120;17.024;2022-07-23T04:40:00;11.4;;;10.4;;
68319;SDS011;55168;51.120;17.024;2022-07-23T04:41:00;11.4;;;10.4;;
68319;SDS011;55168;51.120;17.024;2022-07-23T04:42:00;11.4;;;10.4;;
68319;SDS011;55168;51.120;17.024;2022-07-23T04:43:00;11.4;;;10.4;;
68319;SDS011;55168;51.120;17.024;2022-07-23T04:44:01;12.0;;;10.8;;
68319;SDS011;55168;51.120;17.024;2022-07-23T04:45:00;12.0;;;10.8;;
68319;SDS011;55168;51.120;17.024;2022-07-23T04:46:00;12.0;;;10.8;;
68319;SDS011;55168;51.120;17.024;2022-07-23T04:47:00;12.0;;;10.8;;
68319;SDS011;55168;51.120;17.024;2022-07-23T04:48:00;12.0;;;10.8;;
68319;SDS011;55168;51.120;17.024;2022-07-23T04:49:00;11.3;;;10.2;;
68319;SDS011;55168;51.120;17.024;2022-07-23T04:50:00;11.3;;;10.2;;
68319;SDS011;55168;51.120;17.024;2022-07-23T04:51:00;11.3;;;10.2;;
68319;SDS011;55168;51.120;17.024;2022-07-23T04:52:00;11.3;;;10.2;;
68319;SDS011;55168;51.120;17.024;2022-07-23T04:53:00;11.3;;;10.2;;
68319;SDS011;55168;51.120;17.024;2022-07-23T04:54:00;11.6;;;10.4;;
68319;SDS011;55168;51.120;17.024;2022-07-23T04:55:00;11.6;;;10.4;;
68319;SDS011;55168;51.120;17.024;2022-07-23T04:56:00;11.6;;;10.4;;
68319;SDS011;55168;51.120;17.024;2022-07-23T04:57:00;11.6;;;10.4;;
68319;SDS011;55168;51.120;17.024;2022-07-23T04:58:00;11.6;;;10.4;;
68319;SDS011;55168;51.120;17.024;2022-07-23T04:59:00;11.3;;;10.2;;
68319;SDS011;55168;51.120;17.024;2022-07-23T05:00:00;11.3;;;10.2;;
68319;SDS011;55168;51.120;17.024;2022-07-23T05:01:00;11.3;;;10.2;;
68319;SDS011;55168;51.120;17.024;2022-07-23T05:02:00;11.3;;;10.2;;
68319;SDS011;55168;51.120;17.024;2022-07-23T05:03:00;11.3;;;10.2;;
68319;SDS011;55168;51.120;17.024;2022-07-23T05:04:00;11.3;;;10.1;;
68319;SDS011;55168;51.120;17.024;2022-07-23T05:05:00;11.3;;;10.1;;
68319;SDS011;55168;51.120;17.024;2022-07-23T05:06:00;11.3;;;10.1;;
68319;SDS011;55168;51.120;17.024;2022-07-23T05:07:00;11.3;;;10.1;;
68319;SDS011;55168;51.120;17.024;2022-07-23T05:08:00;11.3;;;10.1;;
68319;SDS011;55168;51.120;17.024;2022-07-23T05:09:00;10.9;;;9.8;;
68319;SDS011;55168;51.120;17.024;2022-07-23T05:10:00;10.9;;;9.8;;
68319;SDS011;55168;51.120;17.024;2022-07-23T05:11:00;10.9;;;9.8;;
68319;SDS011;55168;51.120;17.024;2022-07-23T05:12:00;10.9;;;9.8;;
68319;SDS011;55168;51.120;17.024;2022-07-23T05:13:00;10.9;;;9.8;;
68319;SDS011;55168;51.120;17.024;2022-07-23T05:14:00;10.7;;;9.6;;
68319;SDS011;55168;51.120;17.024;2022-07-23T05:15:00;10.7;;;9.6;;
68319;SDS011;55168;51.120;17.024;2022-07-23T05:16:00;10.7;;;9.6;;
68319;SDS011;55168;51.120;17.024;2022-07-23T05:17:00;10.7;;;9.6;;
68319;SDS011;55168;51.120;17.024;2022-07-23T05:18:00;10.7;;;9.6;;
68319;SDS011;55168;51.120;17.024;2022-07-23T05:19:00;11.6;;;10.5;;
68319;SDS011;55168;51.120;17.024;2022-07-23T05:20:00;11.6;;;10.5;;
68319;SDS011;55168;51.120;17.024;2022-07-23T05:21:00;11.6;;;10.5;;
68319;SDS011;55168;51.120;17.024;2022-07-23T05:22:00;11.6;;;10.5;;
68319;SDS011;55168;51.120;17.024;2022-07-23T05:23:00;11.6;;;10.5;;
68319;SDS011;55168;51.120;17.024;2022-07-23T05:24:00;11.2;;;10.1;;
68319;SDS011;55168;51.120;17.024;2022-07-23T05:25:00;11.2;;;10.1;;
68319;SDS011;55168;51.120;17.024;2022-07-23T05:26:00;11.2;;;10.1;;
68319;SDS011;55168;51.120;17.024;2022-07-23T05:27:00;11.2;;;10.1;;
68319;SDS011;55168;51.120;17.024;2022-07-23T05:28:00;11.2;;;10.1;;
68319;SDS011;55168;51.120;17.024;2022-07-23T05:29:00;11.1;;;10.1;;
68319;SDS011;55168;51.120;17.024;2022-07-23T05:30:00;11.1;;;10.1;;
68319;SDS011;55168;51.120;17.024;2022-07-23T05:31:00;11.1;;;10.1;;
68319;SDS011;55168;51.120;17.024;2022-07-23T05:32:00;11.1;;;10.1;;
68319;SDS011;55168;51.120;17.024;2022-07-23T05:33:00;11.1;;;10.1;;
68319;SDS011;55168;51.120;17.024;2022-07-23T05:34:00;11.5;;;10.4;;
68319;SDS011;55168;51.120;17.024;2022-07-23T05:35:00;11.5;;;10.4;;
68319;SDS011;55168;51.120;17.024;2022-07-23T05:36:01;11.5;;;10.4;;
68319;SDS011;55168;51.120;17.024;2022-07-23T05:37:00;11.5;;;10.4;;
68319;SDS011;55168;51.120;17.024;2022-07-23T05:38:00;11.5;;;10.4;;
68319;SDS011;55168;51.120;17.024;2022-07-23T05:39:00;11.5;;;10.1;;
68319;SDS011;55168;51.120;17.024;2022-07-23T05:40:01;11.5;;;10.1;;
68319;SDS011;55168;51.120;17.024;2022-07-23T05:41:00;11.5;;;10.1;;
68319;SDS011;55168;51.120;17.024;2022-07-23T05:42:00;11.5;;;10.1;;
68319;SDS011;55168;51.120;17.024;2022-07-23T05:43:00;11.5;;;10.1;;
68319;SDS011;55168;51.120;17.024;2022-07-23T05:44:00;11.4;;;10.3;;
68319;SDS011;55168;51.120;17.024;2022-07-23T05:45:00;11.4;;;10.3;;
68319;SDS011;55168;51.120;17.024;2022-07-23T05:46:00;11.4;;;10.3;;
68319;SDS011;55168;51.120;17.024;2022-07-23T05:47:00;11.4;;;10.3;;
68319;SDS011;55168;51.120;17.024;2022-07-23T05:48:00;11.4;;;10.3;;
68319;SDS011;55168;51.120;17.024;2022-07-23T05:49:00;11.6;;;10.4;;
68319;SDS011;55168;51.120;17.024;2022-07-23T05:50:00;11.6;;;10.4;;
68319;SDS011;55168;51.120;17.024;2022-07-23T05:51:00;11.6;;;10.4;;
68319;SDS011;55168;51.120;17.024;2022-07-23T05:52:03;11.6;;;10.4;;
68319;SDS011;55168;51.120;17.024;2022-07-23T05:53:00;11.6;;;10.4;;
68319;SDS011;55168;51.120;17.024;2022-07-23T05:54:00;11.9;;;10.5;;
68319;SDS011;55168;51.120;17.024;2022-07-23T05:55:00;11.9;;;10.5;;
68319;SDS011;55168;51.120;17.024;2022-07-23T05:56:00;11.9;;;10.5;;